sensor_id;sensor_type;location;lat;lon;timestamp;P1;durP1;ratioP1;P2;durP2;ratioP2
15398;SDS011;7797;51.428;6.756;2022-08-23T00:01:16;3.60;;;3.15;;
15398;SDS011;7797;51.428;6.756;2022-08-23T00:03:49;3.63;;;3.22;;
15398;SDS011;7797;51.428;6.756;2022-08-23T00:06:17;5.13;;;3.13;;
15398;SDS011;7797;51.428;6.756;2022-08-23T00:08:45;4.07;;;3.50;;
15398;SDS011;7797;51.428;6.756;2022-08-23T00:11:27;4.53;;;3.58;;
15398;SDS011;7797;51.428;6.756;2022-08-23T00:14:10;5.40;;;3.35;;
15398;SDS011;7797;51.428;6.756;2022-08-23T00:16:57;4.55;;;3.35;;
15398;SDS011;7797;51.428;6.756;2022-08-23T00:19:27;6.57;;;3.42;;
15398;SDS011;7797;51.428;6.756;2022-08-23T00:21:54;4.22;;;3.20;;
15398;SDS011;7797;51.428;6.756;2022-08-23T00:24:22;3.58;;;3.28;;
15398;SDS011;7797;51.428;6.756;2022-08-23T00:29:31;3.60;;;3.30;;
15398;SDS011;7797;51.428;6.756;2022-08-23T00:31:59;3.38;;;3.10;;
15398;SDS011;7797;51.428;6.756;2022-08-23T00:34:26;4.85;;;3.25;;
15398;SDS011;7797;51.428;6.756;2022-08-23T00:36:53;3.50;;;3.20;;
15398;SDS011;7797;51.428;6.756;2022-08-23T00:39:20;3.80;;;3.50;;
15398;SDS011;7797;51.428;6.756;2022-08-23T00:41:48;4.28;;;3.25;;
15398;SDS011;7797;51.428;6.756;2022-08-23T00:44:20;4.13;;;3.47;;
15398;SDS011;7797;51.428;6.756;2022-08-23T00:47:12;3.63;;;3.33;;
15398;SDS011;7797;51.428;6.756;2022-08-23T00:53:15;4.38;;;3.58;;
15398;SDS011;7797;51.428;6.756;2022-08-23T00:55:59;3.75;;;3.45;;
15398;SDS011;7797;51.428;6.756;2022-08-23T00:58:29;4.57;;;3.50;;
15398;SDS011;7797;51.428;6.756;2022-08-23T01:00:57;4.88;;;3.50;;
15398;SDS011;7797;51.428;6.756;2022-08-23T01:03:25;4.72;;;3.78;;
15398;SDS011;7797;51.428;6.756;2022-08-23T01:06:07;4.35;;;3.25;;
15398;SDS011;7797;51.428;6.756;2022-08-23T01:08:36;6.38;;;3.80;;
15398;SDS011;7797;51.428;6.756;2022-08-23T01:11:10;3.85;;;3.55;;
15398;SDS011;7797;51.428;6.756;2022-08-23T01:13:52;3.92;;;3.53;;
15398;SDS011;7797;51.428;6.756;2022-08-23T01:16:33;4.40;;;3.60;;
15398;SDS011;7797;51.428;6.756;2022-08-23T01:19:03;5.03;;;3.63;;
15398;SDS011;7797;51.428;6.756;2022-08-23T01:21:55;4.03;;;3.40;;
15398;SDS011;7797;51.428;6.756;2022-08-23T01:24:25;4.75;;;3.60;;
15398;SDS011;7797;51.428;6.756;2022-08-23T01:27:12;4.85;;;3.78;;
15398;SDS011;7797;51.428;6.756;2022-08-23T01:29:39;5.40;;;4.07;;
15398;SDS011;7797;51.428;6.756;2022-08-23T01:32:06;3.90;;;3.50;;
15398;SDS011;7797;51.428;6.756;2022-08-23T01:34:34;5.05;;;3.38;;
15398;SDS011;7797;51.428;6.756;2022-08-23T01:37:09;7.88;;;3.92;;
15398;SDS011;7797;51.428;6.756;2022-08-23T01:39:36;4.18;;;3.60;;
15398;SDS011;7797;51.428;6.756;2022-08-23T01:42:03;4.18;;;3.78;;
15398;SDS011;7797;51.428;6.756;2022-08-23T01:44:33;5.68;;;3.45;;
15398;SDS011;7797;51.428;6.756;2022-08-23T01:47:00;4.95;;;3.80;;
15398;SDS011;7797;51.428;6.756;2022-08-23T01:49:26;4.15;;;3.47;;
15398;SDS011;7797;51.428;6.756;2022-08-23T01:51:53;5.53;;;3.70;;
15398;SDS011;7797;51.428;6.756;2022-08-23T01:54:20;5.05;;;3.95;;
15398;SDS011;7797;51.428;6.756;2022-08-23T01:56:47;4.80;;;3.83;;
15398;SDS011;7797;51.428;6.756;2022-08-23T01:59:14;6.72;;;4.00;;
15398;SDS011;7797;51.428;6.756;2022-08-23T02:01:41;5.20;;;3.85;;
15398;SDS011;7797;51.428;6.756;2022-08-23T02:04:08;4.10;;;3.60;;
15398;SDS011;7797;51.428;6.756;2022-08-23T02:06:34;4.15;;;3.70;;
15398;SDS011;7797;51.428;6.756;2022-08-23T02:09:02;5.18;;;4.00;;
15398;SDS011;7797;51.428;6.756;2022-08-23T02:11:42;4.30;;;3.90;;
15398;SDS011;7797;51.428;6.756;2022-08-23T02:14:10;6.82;;;3.78;;
15398;SDS011;7797;51.428;6.756;2022-08-23T02:16:41;5.22;;;3.67;;
15398;SDS011;7797;51.428;6.756;2022-08-23T02:19:30;5.82;;;4.05;;
15398;SDS011;7797;51.428;6.756;2022-08-23T02:22:00;3.95;;;3.53;;
15398;SDS011;7797;51.428;6.756;2022-08-23T02:24:27;6.18;;;3.97;;
15398;SDS011;7797;51.428;6.756;2022-08-23T02:26:54;4.63;;;3.72;;
15398;SDS011;7797;51.428;6.756;2022-08-23T02:29:23;4.38;;;3.95;;
15398;SDS011;7797;51.428;6.756;2022-08-23T02:31:53;5.53;;;4.00;;
15398;SDS011;7797;51.428;6.756;2022-08-23T02:34:21;4.88;;;3.83;;
15398;SDS011;7797;51.428;6.756;2022-08-23T02:36:50;7.20;;;4.18;;
15398;SDS011;7797;51.428;6.756;2022-08-23T02:39:17;7.45;;;4.68;;
15398;SDS011;7797;51.428;6.756;2022-08-23T02:41:43;5.10;;;4.07;;
15398;SDS011;7797;51.428;6.756;2022-08-23T02:44:10;4.68;;;4.22;;
15398;SDS011;7797;51.428;6.756;2022-08-23T02:46:38;4.25;;;3.85;;
15398;SDS011;7797;51.428;6.756;2022-08-23T02:49:05;4.63;;;4.23;;
15398;SDS011;7797;51.428;6.756;2022-08-23T02:51:32;5.78;;;4.18;;
15398;SDS011;7797;51.428;6.756;2022-08-23T02:53:59;4.85;;;4.07;;
15398;SDS011;7797;51.428;6.756;2022-08-23T02:56:26;4.72;;;4.03;;
15398;SDS011;7797;51.428;6.756;2022-08-23T02:58:53;5.20;;;4.22;;
15398;SDS011;7797;51.428;6.756;2022-08-23T03:01:31;5.43;;;4.27;;
15398;SDS011;7797;51.428;6.756;2022-08-23T03:03:59;4.87;;;4.00;;
15398;SDS011;7797;51.428;6.756;2022-08-23T03:06:26;4.20;;;3.80;;
15398;SDS011;7797;51.428;6.756;2022-08-23T03:08:53;4.50;;;4.10;;
15398;SDS011;7797;51.428;6.756;2022-08-23T03:11:22;4.10;;;3.70;;
15398;SDS011;7797;51.428;6.756;2022-08-23T03:13:50;4.88;;;3.95;;
15398;SDS011;7797;51.428;6.756;2022-08-23T03:16:18;4.43;;;4.00;;
15398;SDS011;7797;51.428;6.756;2022-08-23T03:18:45;5.63;;;3.90;;
15398;SDS011;7797;51.428;6.756;2022-08-23T03:21:12;4.73;;;4.20;;
15398;SDS011;7797;51.428;6.756;2022-08-23T03:23:39;4.47;;;4.07;;
15398;SDS011;7797;51.428;6.756;2022-08-23T03:26:07;5.87;;;4.10;;
15398;SDS011;7797;51.428;6.756;2022-08-23T03:28:36;4.37;;;3.97;;
15398;SDS011;7797;51.428;6.756;2022-08-23T03:31:04;4.80;;;4.07;;
15398;SDS011;7797;51.428;6.756;2022-08-23T03:33:31;4.93;;;4.20;;
15398;SDS011;7797;51.428;6.756;2022-08-23T03:35:58;4.87;;;4.43;;
15398;SDS011;7797;51.428;6.756;2022-08-23T03:38:25;9.13;;;3.83;;
15398;SDS011;7797;51.428;6.756;2022-08-23T03:40:52;5.03;;;3.90;;
15398;SDS011;7797;51.428;6.756;2022-08-23T03:43:19;5.47;;;4.50;;
15398;SDS011;7797;51.428;6.756;2022-08-23T03:45:47;4.90;;;3.90;;
15398;SDS011;7797;51.428;6.756;2022-08-23T03:48:13;4.50;;;4.10;;
15398;SDS011;7797;51.428;6.756;2022-08-23T03:50:40;4.63;;;3.90;;
15398;SDS011;7797;51.428;6.756;2022-08-23T03:53:07;4.43;;;3.73;;
15398;SDS011;7797;51.428;6.756;2022-08-23T03:55:37;4.20;;;3.80;;
15398;SDS011;7797;51.428;6.756;2022-08-23T03:58:08;5.57;;;4.33;;
15398;SDS011;7797;51.428;6.756;2022-08-23T04:00:36;5.33;;;3.90;;
15398;SDS011;7797;51.428;6.756;2022-08-23T04:03:03;4.60;;;4.20;;
15398;SDS011;7797;51.428;6.756;2022-08-23T04:05:30;6.33;;;4.13;;
15398;SDS011;7797;51.428;6.756;2022-08-23T04:07:57;4.50;;;4.07;;
15398;SDS011;7797;51.428;6.756;2022-08-23T04:10:24;4.63;;;3.80;;
15398;SDS011;7797;51.428;6.756;2022-08-23T04:12:51;4.57;;;4.17;;
15398;SDS011;7797;51.428;6.756;2022-08-23T04:15:20;4.70;;;4.13;;
15398;SDS011;7797;51.428;6.756;2022-08-23T04:17:47;5.10;;;4.00;;
15398;SDS011;7797;51.428;6.756;2022-08-23T04:20:14;4.43;;;3.97;;
15398;SDS011;7797;51.428;6.756;2022-08-23T04:22:41;4.30;;;3.90;;
15398;SDS011;7797;51.428;6.756;2022-08-23T04:25:11;4.23;;;3.83;;
15398;SDS011;7797;51.428;6.756;2022-08-23T04:27:58;4.90;;;3.83;;
15398;SDS011;7797;51.428;6.756;2022-08-23T04:30:25;4.90;;;4.40;;
15398;SDS011;7797;51.428;6.756;2022-08-23T04:32:52;6.03;;;4.33;;
15398;SDS011;7797;51.428;6.756;2022-08-23T04:35:20;7.27;;;4.43;;
15398;SDS011;7797;51.428;6.756;2022-08-23T04:37:47;7.20;;;4.40;;
15398;SDS011;7797;51.428;6.756;2022-08-23T04:40:14;5.57;;;4.57;;
15398;SDS011;7797;51.428;6.756;2022-08-23T04:42:59;7.23;;;4.80;;
15398;SDS011;7797;51.428;6.756;2022-08-23T04:45:26;7.27;;;4.37;;
15398;SDS011;7797;51.428;6.756;2022-08-23T04:47:54;5.67;;;4.20;;
15398;SDS011;7797;51.428;6.756;2022-08-23T04:50:20;6.27;;;4.30;;
15398;SDS011;7797;51.428;6.756;2022-08-23T04:52:47;7.23;;;4.97;;
15398;SDS011;7797;51.428;6.756;2022-08-23T04:55:14;6.93;;;4.80;;
15398;SDS011;7797;51.428;6.756;2022-08-23T04:57:41;6.33;;;4.80;;
15398;SDS011;7797;51.428;6.756;2022-08-23T05:00:09;4.83;;;4.43;;
15398;SDS011;7797;51.428;6.756;2022-08-23T05:02:39;7.53;;;4.80;;
15398;SDS011;7797;51.428;6.756;2022-08-23T05:05:08;7.80;;;5.00;;
15398;SDS011;7797;51.428;6.756;2022-08-23T05:07:36;6.57;;;5.33;;
15398;SDS011;7797;51.428;6.756;2022-08-23T05:10:09;8.60;;;5.37;;
15398;SDS011;7797;51.428;6.756;2022-08-23T05:12:38;8.50;;;4.80;;
15398;SDS011;7797;51.428;6.756;2022-08-23T05:15:05;7.80;;;5.07;;
15398;SDS011;7797;51.428;6.756;2022-08-23T05:17:35;7.67;;;5.30;;
15398;SDS011;7797;51.428;6.756;2022-08-23T05:20:02;7.17;;;5.73;;
15398;SDS011;7797;51.428;6.756;2022-08-23T05:22:37;9.53;;;5.77;;
15398;SDS011;7797;51.428;6.756;2022-08-23T05:25:05;8.17;;;5.80;;
15398;SDS011;7797;51.428;6.756;2022-08-23T05:27:32;9.63;;;5.47;;
15398;SDS011;7797;51.428;6.756;2022-08-23T05:29:59;9.40;;;5.63;;
15398;SDS011;7797;51.428;6.756;2022-08-23T05:32:25;8.17;;;5.63;;
15398;SDS011;7797;51.428;6.756;2022-08-23T05:34:58;8.40;;;5.90;;
15398;SDS011;7797;51.428;6.756;2022-08-23T05:37:25;7.10;;;5.60;;
15398;SDS011;7797;51.428;6.756;2022-08-23T05:39:51;8.73;;;5.67;;
15398;SDS011;7797;51.428;6.756;2022-08-23T05:42:18;9.63;;;5.80;;
15398;SDS011;7797;51.428;6.756;2022-08-23T05:44:45;8.77;;;5.77;;
15398;SDS011;7797;51.428;6.756;2022-08-23T05:47:12;9.13;;;6.23;;
15398;SDS011;7797;51.428;6.756;2022-08-23T05:49:41;7.40;;;6.13;;
15398;SDS011;7797;51.428;6.756;2022-08-23T05:52:08;9.40;;;6.23;;
15398;SDS011;7797;51.428;6.756;2022-08-23T05:54:37;8.57;;;6.33;;
15398;SDS011;7797;51.428;6.756;2022-08-23T05:57:04;9.67;;;6.50;;
15398;SDS011;7797;51.428;6.756;2022-08-23T05:59:31;7.23;;;5.90;;
15398;SDS011;7797;51.428;6.756;2022-08-23T06:01:57;8.93;;;6.07;;
15398;SDS011;7797;51.428;6.756;2022-08-23T06:04:24;11.67;;;6.50;;
15398;SDS011;7797;51.428;6.756;2022-08-23T06:06:51;8.73;;;5.97;;
15398;SDS011;7797;51.428;6.756;2022-08-23T06:09:19;8.30;;;6.50;;
15398;SDS011;7797;51.428;6.756;2022-08-23T06:11:46;9.87;;;6.27;;
15398;SDS011;7797;51.428;6.756;2022-08-23T06:14:13;9.77;;;5.93;;
15398;SDS011;7797;51.428;6.756;2022-08-23T06:16:42;7.07;;;5.60;;
15398;SDS011;7797;51.428;6.756;2022-08-23T06:19:12;8.97;;;5.73;;
15398;SDS011;7797;51.428;6.756;2022-08-23T06:21:40;8.00;;;5.17;;
15398;SDS011;7797;51.428;6.756;2022-08-23T06:24:10;6.97;;;5.67;;
15398;SDS011;7797;51.428;6.756;2022-08-23T06:27:14;9.57;;;6.10;;
15398;SDS011;7797;51.428;6.756;2022-08-23T06:29:56;6.27;;;5.60;;
15398;SDS011;7797;51.428;6.756;2022-08-23T06:32:23;9.13;;;5.83;;
15398;SDS011;7797;51.428;6.756;2022-08-23T06:34:49;11.03;;;6.73;;
15398;SDS011;7797;51.428;6.756;2022-08-23T06:37:36;8.33;;;6.40;;
15398;SDS011;7797;51.428;6.756;2022-08-23T06:40:04;8.73;;;6.67;;
15398;SDS011;7797;51.428;6.756;2022-08-23T06:42:31;8.27;;;6.73;;
15398;SDS011;7797;51.428;6.756;2022-08-23T06:45:05;11.40;;;6.97;;
15398;SDS011;7797;51.428;6.756;2022-08-23T06:47:32;9.03;;;6.50;;
15398;SDS011;7797;51.428;6.756;2022-08-23T06:49:59;7.93;;;6.50;;
15398;SDS011;7797;51.428;6.756;2022-08-23T06:52:26;9.63;;;6.50;;
15398;SDS011;7797;51.428;6.756;2022-08-23T06:54:53;11.07;;;7.10;;
15398;SDS011;7797;51.428;6.756;2022-08-23T06:57:22;11.13;;;7.20;;
15398;SDS011;7797;51.428;6.756;2022-08-23T06:59:49;11.20;;;6.23;;
15398;SDS011;7797;51.428;6.756;2022-08-23T07:02:16;12.43;;;6.13;;
15398;SDS011;7797;51.428;6.756;2022-08-23T07:04:43;11.90;;;6.33;;
15398;SDS011;7797;51.428;6.756;2022-08-23T07:07:10;11.27;;;6.03;;
15398;SDS011;7797;51.428;6.756;2022-08-23T07:09:38;8.17;;;5.60;;
15398;SDS011;7797;51.428;6.756;2022-08-23T07:12:05;8.83;;;5.47;;
15398;SDS011;7797;51.428;6.756;2022-08-23T07:14:32;8.70;;;5.37;;
15398;SDS011;7797;51.428;6.756;2022-08-23T07:17:01;10.27;;;5.20;;
15398;SDS011;7797;51.428;6.756;2022-08-23T07:19:31;9.53;;;5.80;;
15398;SDS011;7797;51.428;6.756;2022-08-23T07:21:59;8.43;;;5.53;;
15398;SDS011;7797;51.428;6.756;2022-08-23T07:24:26;8.10;;;5.07;;
15398;SDS011;7797;51.428;6.756;2022-08-23T07:26:59;9.33;;;5.37;;
15398;SDS011;7797;51.428;6.756;2022-08-23T07:29:27;9.90;;;5.73;;
15398;SDS011;7797;51.428;6.756;2022-08-23T07:31:55;7.03;;;5.13;;
15398;SDS011;7797;51.428;6.756;2022-08-23T07:34:22;8.50;;;5.33;;
15398;SDS011;7797;51.428;6.756;2022-08-23T07:36:50;6.73;;;4.80;;
15398;SDS011;7797;51.428;6.756;2022-08-23T07:39:18;10.70;;;5.47;;
15398;SDS011;7797;51.428;6.756;2022-08-23T07:41:46;8.57;;;5.43;;
15398;SDS011;7797;51.428;6.756;2022-08-23T07:44:14;8.30;;;5.20;;
15398;SDS011;7797;51.428;6.756;2022-08-23T07:46:43;10.00;;;5.67;;
15398;SDS011;7797;51.428;6.756;2022-08-23T07:49:11;11.10;;;5.00;;
15398;SDS011;7797;51.428;6.756;2022-08-23T07:51:39;11.10;;;5.37;;
15398;SDS011;7797;51.428;6.756;2022-08-23T07:54:09;8.40;;;5.23;;
15398;SDS011;7797;51.428;6.756;2022-08-23T07:56:36;10.47;;;5.10;;
15398;SDS011;7797;51.428;6.756;2022-08-23T07:59:03;7.70;;;5.03;;
15398;SDS011;7797;51.428;6.756;2022-08-23T08:01:30;9.77;;;5.07;;
15398;SDS011;7797;51.428;6.756;2022-08-23T08:03:58;10.43;;;5.50;;
15398;SDS011;7797;51.428;6.756;2022-08-23T08:06:27;8.55;;;5.20;;
15398;SDS011;7797;51.428;6.756;2022-08-23T08:09:08;7.25;;;5.68;;
15398;SDS011;7797;51.428;6.756;2022-08-23T08:11:35;11.07;;;5.55;;
15398;SDS011;7797;51.428;6.756;2022-08-23T08:14:06;11.65;;;5.90;;
15398;SDS011;7797;51.428;6.756;2022-08-23T08:16:35;9.70;;;6.27;;
15398;SDS011;7797;51.428;6.756;2022-08-23T08:19:04;10.07;;;5.70;;
15398;SDS011;7797;51.428;6.756;2022-08-23T08:21:33;8.17;;;5.57;;
15398;SDS011;7797;51.428;6.756;2022-08-23T08:24:00;8.63;;;4.95;;
15398;SDS011;7797;51.428;6.756;2022-08-23T08:26:27;7.43;;;5.10;;
15398;SDS011;7797;51.428;6.756;2022-08-23T08:28:54;9.20;;;5.38;;
15398;SDS011;7797;51.428;6.756;2022-08-23T08:31:24;8.52;;;5.03;;
15398;SDS011;7797;51.428;6.756;2022-08-23T08:33:52;7.00;;;5.32;;
15398;SDS011;7797;51.428;6.756;2022-08-23T08:36:54;9.02;;;5.40;;
15398;SDS011;7797;51.428;6.756;2022-08-23T08:39:17;11.60;;;5.65;;
15398;SDS011;7797;51.428;6.756;2022-08-23T08:47:16;9.10;;;5.40;;
15398;SDS011;7797;51.428;6.756;2022-08-23T08:49:54;7.15;;;5.22;;
15398;SDS011;7797;51.428;6.756;2022-08-23T08:52:39;13.57;;;6.30;;
15398;SDS011;7797;51.428;6.756;2022-08-23T08:55:10;10.88;;;5.57;;
15398;SDS011;7797;51.428;6.756;2022-08-23T08:57:40;8.57;;;5.60;;
15398;SDS011;7797;51.428;6.756;2022-08-23T09:00:12;9.13;;;5.20;;
15398;SDS011;7797;51.428;6.756;2022-08-23T09:02:48;8.15;;;5.32;;
15398;SDS011;7797;51.428;6.756;2022-08-23T09:05:36;11.82;;;5.45;;
15398;SDS011;7797;51.428;6.756;2022-08-23T09:17:18;7.45;;;6.03;;
15398;SDS011;7797;51.428;6.756;2022-08-23T09:19:51;12.10;;;6.28;;
15398;SDS011;7797;51.428;6.756;2022-08-23T09:23:06;8.65;;;5.72;;
15398;SDS011;7797;51.428;6.756;2022-08-23T09:25:17;15.02;;;6.20;;
15398;SDS011;7797;51.428;6.756;2022-08-23T09:27:44;8.32;;;6.20;;
15398;SDS011;7797;51.428;6.756;2022-08-23T09:30:12;13.63;;;7.85;;
15398;SDS011;7797;51.428;6.756;2022-08-23T09:32:41;13.18;;;6.97;;
15398;SDS011;7797;51.428;6.756;2022-08-23T09:40:47;12.38;;;7.53;;
15398;SDS011;7797;51.428;6.756;2022-08-23T09:43:16;11.90;;;6.72;;
15398;SDS011;7797;51.428;6.756;2022-08-23T09:51:02;11.10;;;6.20;;
15398;SDS011;7797;51.428;6.756;2022-08-23T09:53:51;11.80;;;6.97;;
15398;SDS011;7797;51.428;6.756;2022-08-23T09:56:51;11.95;;;6.05;;
15398;SDS011;7797;51.428;6.756;2022-08-23T10:01:53;11.75;;;5.88;;
15398;SDS011;7797;51.428;6.756;2022-08-23T10:04:23;15.35;;;6.20;;
15398;SDS011;7797;51.428;6.756;2022-08-23T10:06:50;10.50;;;5.78;;
15398;SDS011;7797;51.428;6.756;2022-08-23T10:09:35;10.32;;;6.32;;
15398;SDS011;7797;51.428;6.756;2022-08-23T10:12:02;8.77;;;6.10;;
15398;SDS011;7797;51.428;6.756;2022-08-23T10:14:32;14.52;;;6.10;;
15398;SDS011;7797;51.428;6.756;2022-08-23T10:17:07;12.15;;;6.78;;
15398;SDS011;7797;51.428;6.756;2022-08-23T10:23:08;10.68;;;5.93;;
15398;SDS011;7797;51.428;6.756;2022-08-23T10:25:42;12.30;;;5.55;;
15398;SDS011;7797;51.428;6.756;2022-08-23T10:31:27;10.27;;;5.53;;
15398;SDS011;7797;51.428;6.756;2022-08-23T10:34:24;8.05;;;4.38;;
15398;SDS011;7797;51.428;6.756;2022-08-23T10:39:44;5.18;;;3.83;;
15398;SDS011;7797;51.428;6.756;2022-08-23T10:42:23;7.78;;;3.70;;
15398;SDS011;7797;51.428;6.756;2022-08-23T10:45:40;5.75;;;3.35;;
15398;SDS011;7797;51.428;6.756;2022-08-23T10:50:27;5.90;;;4.15;;
15398;SDS011;7797;51.428;6.756;2022-08-23T10:53:10;6.22;;;3.60;;
15398;SDS011;7797;51.428;6.756;2022-08-23T10:55:40;7.82;;;4.22;;
15398;SDS011;7797;51.428;6.756;2022-08-23T10:58:40;6.72;;;3.95;;
15398;SDS011;7797;51.428;6.756;2022-08-23T11:01:16;7.63;;;4.47;;
15398;SDS011;7797;51.428;6.756;2022-08-23T11:03:51;4.45;;;4.05;;
15398;SDS011;7797;51.428;6.756;2022-08-23T11:09:07;9.43;;;4.88;;
15398;SDS011;7797;51.428;6.756;2022-08-23T11:14:06;6.18;;;3.95;;
15398;SDS011;7797;51.428;6.756;2022-08-23T11:16:36;6.97;;;3.63;;
15398;SDS011;7797;51.428;6.756;2022-08-23T11:19:10;6.93;;;3.90;;
15398;SDS011;7797;51.428;6.756;2022-08-23T11:21:44;7.63;;;4.05;;
15398;SDS011;7797;51.428;6.756;2022-08-23T11:34:21;6.68;;;3.78;;
15398;SDS011;7797;51.428;6.756;2022-08-23T11:42:24;6.97;;;3.78;;
15398;SDS011;7797;51.428;6.756;2022-08-23T11:48:05;5.20;;;4.00;;
15398;SDS011;7797;51.428;6.756;2022-08-23T11:54:00;5.75;;;3.67;;
15398;SDS011;7797;51.428;6.756;2022-08-23T12:05:38;6.18;;;3.85;;
15398;SDS011;7797;51.428;6.756;2022-08-23T12:10:57;6.35;;;3.40;;
15398;SDS011;7797;51.428;6.756;2022-08-23T12:21:16;7.43;;;3.50;;
15398;SDS011;7797;51.428;6.756;2022-08-23T12:23:47;5.60;;;3.05;;
15398;SDS011;7797;51.428;6.756;2022-08-23T12:26:33;7.40;;;3.13;;
15398;SDS011;7797;51.428;6.756;2022-08-23T12:32:05;6.10;;;3.20;;
15398;SDS011;7797;51.428;6.756;2022-08-23T12:34:56;4.93;;;3.25;;
15398;SDS011;7797;51.428;6.756;2022-08-23T12:40:12;5.65;;;2.80;;
15398;SDS011;7797;51.428;6.756;2022-08-23T12:42:41;4.10;;;2.70;;
15398;SDS011;7797;51.428;6.756;2022-08-23T12:48:01;4.82;;;2.70;;
15398;SDS011;7797;51.428;6.756;2022-08-23T12:50:35;6.55;;;3.05;;
15398;SDS011;7797;51.428;6.756;2022-08-23T12:53:06;4.30;;;3.03;;
15398;SDS011;7797;51.428;6.756;2022-08-23T12:55:39;3.00;;;2.35;;
15398;SDS011;7797;51.428;6.756;2022-08-23T12:58:09;3.00;;;2.80;;
15398;SDS011;7797;51.428;6.756;2022-08-23T13:00:56;4.50;;;2.60;;
15398;SDS011;7797;51.428;6.756;2022-08-23T13:03:29;4.13;;;2.92;;
15398;SDS011;7797;51.428;6.756;2022-08-23T13:06:10;4.18;;;2.90;;
15398;SDS011;7797;51.428;6.756;2022-08-23T13:11:08;3.38;;;2.90;;
15398;SDS011;7797;51.428;6.756;2022-08-23T13:13:36;6.65;;;3.28;;
15398;SDS011;7797;51.428;6.756;2022-08-23T13:18:53;4.05;;;3.05;;
15398;SDS011;7797;51.428;6.756;2022-08-23T13:23:48;4.00;;;2.80;;
15398;SDS011;7797;51.428;6.756;2022-08-23T13:26:51;5.20;;;3.15;;
15398;SDS011;7797;51.428;6.756;2022-08-23T13:29:20;3.20;;;2.70;;
15398;SDS011;7797;51.428;6.756;2022-08-23T13:37:02;4.40;;;2.85;;
15398;SDS011;7797;51.428;6.756;2022-08-23T13:39:31;3.97;;;2.50;;
15398;SDS011;7797;51.428;6.756;2022-08-23T13:41:58;3.75;;;3.00;;
15398;SDS011;7797;51.428;6.756;2022-08-23T13:44:25;4.50;;;2.78;;
15398;SDS011;7797;51.428;6.756;2022-08-23T13:46:52;3.53;;;2.88;;
15398;SDS011;7797;51.428;6.756;2022-08-23T13:49:20;4.05;;;3.10;;
15398;SDS011;7797;51.428;6.756;2022-08-23T13:54:45;3.30;;;2.50;;
15398;SDS011;7797;51.428;6.756;2022-08-23T13:57:18;3.75;;;2.55;;
15398;SDS011;7797;51.428;6.756;2022-08-23T13:59:47;2.95;;;2.53;;
15398;SDS011;7797;51.428;6.756;2022-08-23T14:02:16;6.10;;;2.72;;
15398;SDS011;7797;51.428;6.756;2022-08-23T14:04:43;2.50;;;2.30;;
15398;SDS011;7797;51.428;6.756;2022-08-23T14:07:11;3.05;;;2.55;;
15398;SDS011;7797;51.428;6.756;2022-08-23T14:09:38;4.13;;;2.55;;
15398;SDS011;7797;51.428;6.756;2022-08-23T14:12:08;3.22;;;2.30;;
15398;SDS011;7797;51.428;6.756;2022-08-23T14:14:38;4.47;;;2.45;;
15398;SDS011;7797;51.428;6.756;2022-08-23T14:17:05;4.07;;;2.80;;
15398;SDS011;7797;51.428;6.756;2022-08-23T14:19:38;3.03;;;2.60;;
15398;SDS011;7797;51.428;6.756;2022-08-23T14:22:25;4.65;;;2.78;;
15398;SDS011;7797;51.428;6.756;2022-08-23T14:24:52;3.97;;;2.42;;
15398;SDS011;7797;51.428;6.756;2022-08-23T14:27:18;5.05;;;2.80;;
15398;SDS011;7797;51.428;6.756;2022-08-23T14:29:45;3.00;;;2.47;;
15398;SDS011;7797;51.428;6.756;2022-08-23T14:32:12;3.63;;;2.38;;
15398;SDS011;7797;51.428;6.756;2022-08-23T14:34:39;3.45;;;2.33;;
15398;SDS011;7797;51.428;6.756;2022-08-23T14:37:05;2.30;;;2.20;;
15398;SDS011;7797;51.428;6.756;2022-08-23T14:39:53;3.45;;;2.20;;
15398;SDS011;7797;51.428;6.756;2022-08-23T14:42:21;3.28;;;2.50;;
15398;SDS011;7797;51.428;6.756;2022-08-23T14:44:49;3.30;;;2.50;;
15398;SDS011;7797;51.428;6.756;2022-08-23T14:47:16;4.53;;;2.40;;
15398;SDS011;7797;51.428;6.756;2022-08-23T14:49:43;2.53;;;2.33;;
15398;SDS011;7797;51.428;6.756;2022-08-23T14:52:11;2.60;;;2.40;;
15398;SDS011;7797;51.428;6.756;2022-08-23T14:54:38;2.50;;;2.28;;
15398;SDS011;7797;51.428;6.756;2022-08-23T14:57:05;4.20;;;2.40;;
15398;SDS011;7797;51.428;6.756;2022-08-23T14:59:32;5.55;;;2.30;;
15398;SDS011;7797;51.428;6.756;2022-08-23T15:01:59;2.78;;;2.42;;
15398;SDS011;7797;51.428;6.756;2022-08-23T15:04:26;2.92;;;2.45;;
15398;SDS011;7797;51.428;6.756;2022-08-23T15:07:00;2.40;;;2.20;;
15398;SDS011;7797;51.428;6.756;2022-08-23T15:09:45;3.25;;;2.50;;
15398;SDS011;7797;51.428;6.756;2022-08-23T15:12:13;2.45;;;2.25;;
15398;SDS011;7797;51.428;6.756;2022-08-23T15:15:00;2.30;;;2.10;;
15398;SDS011;7797;51.428;6.756;2022-08-23T15:17:28;3.67;;;2.30;;
15398;SDS011;7797;51.428;6.756;2022-08-23T15:19:57;3.40;;;2.20;;
15398;SDS011;7797;51.428;6.756;2022-08-23T15:22:24;2.22;;;2.03;;
15398;SDS011;7797;51.428;6.756;2022-08-23T15:24:51;3.40;;;2.40;;
15398;SDS011;7797;51.428;6.756;2022-08-23T15:27:18;5.68;;;2.47;;
15398;SDS011;7797;51.428;6.756;2022-08-23T15:29:45;3.38;;;2.20;;
15398;SDS011;7797;51.428;6.756;2022-08-23T15:32:12;2.90;;;2.30;;
15398;SDS011;7797;51.428;6.756;2022-08-23T15:34:47;4.47;;;2.67;;
15398;SDS011;7797;51.428;6.756;2022-08-23T15:37:14;2.67;;;2.35;;
15398;SDS011;7797;51.428;6.756;2022-08-23T15:39:41;5.75;;;2.28;;
15398;SDS011;7797;51.428;6.756;2022-08-23T15:42:08;3.75;;;2.08;;
15398;SDS011;7797;51.428;6.756;2022-08-23T15:44:35;2.17;;;1.95;;
15398;SDS011;7797;51.428;6.756;2022-08-23T15:47:02;3.00;;;2.03;;
15398;SDS011;7797;51.428;6.756;2022-08-23T15:49:31;3.33;;;2.10;;
15398;SDS011;7797;51.428;6.756;2022-08-23T15:52:02;4.00;;;2.25;;
15398;SDS011;7797;51.428;6.756;2022-08-23T15:54:29;2.80;;;2.10;;
15398;SDS011;7797;51.428;6.756;2022-08-23T15:56:56;5.25;;;2.30;;
15398;SDS011;7797;51.428;6.756;2022-08-23T15:59:23;2.90;;;1.90;;
15398;SDS011;7797;51.428;6.756;2022-08-23T16:01:50;2.15;;;2.00;;
15398;SDS011;7797;51.428;6.756;2022-08-23T16:04:17;2.80;;;2.00;;
15398;SDS011;7797;51.428;6.756;2022-08-23T16:06:45;3.58;;;2.10;;
15398;SDS011;7797;51.428;6.756;2022-08-23T16:09:18;4.07;;;1.98;;
15398;SDS011;7797;51.428;6.756;2022-08-23T16:11:47;2.22;;;1.95;;
15398;SDS011;7797;51.428;6.756;2022-08-23T16:14:15;3.03;;;2.10;;
15398;SDS011;7797;51.428;6.756;2022-08-23T16:16:44;4.20;;;2.13;;
15398;SDS011;7797;51.428;6.756;2022-08-23T16:19:12;6.22;;;2.20;;
15398;SDS011;7797;51.428;6.756;2022-08-23T16:21:42;3.58;;;2.00;;
15398;SDS011;7797;51.428;6.756;2022-08-23T16:24:09;3.78;;;2.25;;
15398;SDS011;7797;51.428;6.756;2022-08-23T16:26:37;2.35;;;2.13;;
15398;SDS011;7797;51.428;6.756;2022-08-23T16:29:10;3.33;;;1.98;;
15398;SDS011;7797;51.428;6.756;2022-08-23T16:31:39;4.75;;;2.45;;
15398;SDS011;7797;51.428;6.756;2022-08-23T16:34:08;2.20;;;1.98;;
15398;SDS011;7797;51.428;6.756;2022-08-23T16:36:41;3.85;;;2.20;;
15398;SDS011;7797;51.428;6.756;2022-08-23T16:39:10;3.25;;;1.90;;
15398;SDS011;7797;51.428;6.756;2022-08-23T16:41:38;2.55;;;2.08;;
15398;SDS011;7797;51.428;6.756;2022-08-23T16:44:05;3.20;;;2.13;;
15398;SDS011;7797;51.428;6.756;2022-08-23T16:46:33;3.78;;;2.10;;
15398;SDS011;7797;51.428;6.756;2022-08-23T16:49:00;5.43;;;2.40;;
15398;SDS011;7797;51.428;6.756;2022-08-23T16:51:27;2.00;;;1.70;;
15398;SDS011;7797;51.428;6.756;2022-08-23T16:53:54;4.38;;;1.88;;
15398;SDS011;7797;51.428;6.756;2022-08-23T16:56:29;4.15;;;2.03;;
15398;SDS011;7797;51.428;6.756;2022-08-23T16:58:57;4.97;;;2.10;;
15398;SDS011;7797;51.428;6.756;2022-08-23T17:01:24;2.55;;;1.88;;
15398;SDS011;7797;51.428;6.756;2022-08-23T17:03:51;1.92;;;1.80;;
15398;SDS011;7797;51.428;6.756;2022-08-23T17:06:18;3.13;;;1.90;;
15398;SDS011;7797;51.428;6.756;2022-08-23T17:08:44;2.05;;;1.80;;
15398;SDS011;7797;51.428;6.756;2022-08-23T17:11:13;3.45;;;2.10;;
15398;SDS011;7797;51.428;6.756;2022-08-23T17:13:41;2.53;;;2.00;;
15398;SDS011;7797;51.428;6.756;2022-08-23T17:16:08;2.28;;;2.03;;
15398;SDS011;7797;51.428;6.756;2022-08-23T17:18:36;3.40;;;1.77;;